sensor_id;sensor_type;location;lat;lon;timestamp;temperature;humidity
6930;DHT22;3504;52.616;13.238;2023-02-04T00:04:16;3.63;81.33
6930;DHT22;3504;52.616;13.238;2023-02-04T00:09:16;3.70;82.30
6930;DHT22;3504;52.616;13.238;2023-02-04T00:14:17;3.63;82.38
6930;DHT22;3504;52.616;13.238;2023-02-04T00:19:17;3.62;82.89
6930;DHT22;3504;52.616;13.238;2023-02-04T00:24:18;3.53;83.70
6930;DHT22;3504;52.616;13.238;2023-02-04T00:29:18;3.49;82.88
6930;DHT22;3504;52.616;13.238;2023-02-04T00:34:19;3.46;82.74
6930;DHT22;3504;52.616;13.238;2023-02-04T00:39:19;3.42;82.14
6930;DHT22;3504;52.616;13.238;2023-02-04T00:44:20;3.35;82.24
6930;DHT22;3504;52.616;13.238;2023-02-04T00:49:20;3.29;82.02
6930;DHT22;3504;52.616;13.238;2023-02-04T00:54:21;3.16;81.35
6930;DHT22;3504;52.616;13.238;2023-02-04T00:59:22;3.15;82.00
6930;DHT22;3504;52.616;13.238;2023-02-04T01:04:22;3.07;81.05
6930;DHT22;3504;52.616;13.238;2023-02-04T01:09:25;3.08;81.01
6930;DHT22;3504;52.616;13.238;2023-02-04T01:14:25;3.08;80.89
6930;DHT22;3504;52.616;13.238;2023-02-04T01:19:26;3.01;80.81
6930;DHT22;3504;52.616;13.238;2023-02-04T01:24:27;2.95;80.22
6930;DHT22;3504;52.616;13.238;2023-02-04T01:29:46;2.92;81.05
6930;DHT22;3504;52.616;13.238;2023-02-04T01:34:46;2.84;80.92
6930;DHT22;3504;52.616;13.238;2023-02-04T01:39:47;2.80;81.33
6930;DHT22;3504;52.616;13.238;2023-02-04T01:44:47;2.74;81.23
6930;DHT22;3504;52.616;13.238;2023-02-04T01:49:52;2.74;81.32
6930;DHT22;3504;52.616;13.238;2023-02-04T01:54:52;2.71;81.09
6930;DHT22;3504;52.616;13.238;2023-02-04T01:59:54;2.68;80.47
6930;DHT22;3504;52.616;13.238;2023-02-04T02:04:55;2.61;80.69
6930;DHT22;3504;52.616;13.238;2023-02-04T02:09:58;2.60;80.65
6930;DHT22;3504;52.616;13.238;2023-02-04T02:14:59;2.60;81.04
6930;DHT22;3504;52.616;13.238;2023-02-04T02:19:59;2.60;80.94
6930;DHT22;3504;52.616;13.238;2023-02-04T02:25:09;2.49;80.79
6930;DHT22;3504;52.616;13.238;2023-02-04T02:30:13;2.37;81.34
6930;DHT22;3504;52.616;13.238;2023-02-04T02:35:17;2.35;81.83
6930;DHT22;3504;52.616;13.238;2023-02-04T02:40:18;2.28;82.16
6930;DHT22;3504;52.616;13.238;2023-02-04T02:45:25;2.25;82.42
6930;DHT22;3504;52.616;13.238;2023-02-04T02:50:28;2.19;82.56
6930;DHT22;3504;52.616;13.238;2023-02-04T02:55:30;2.17;82.60
6930;DHT22;3504;52.616;13.238;2023-02-04T03:00:32;2.13;82.62
6930;DHT22;3504;52.616;13.238;2023-02-04T03:05:38;2.06;82.78
6930;DHT22;3504;52.616;13.238;2023-02-04T03:10:42;2.07;82.90
6930;DHT22;3504;52.616;13.238;2023-02-04T03:15:45;2.01;82.85
6930;DHT22;3504;52.616;13.238;2023-02-04T03:20:47;2.06;82.74
6930;DHT22;3504;52.616;13.238;2023-02-04T03:25:50;2.01;82.80
6930;DHT22;3504;52.616;13.238;2023-02-04T03:30:52;1.98;82.84
6930;DHT22;3504;52.616;13.238;2023-02-04T03:35:57;1.89;82.87
6930;DHT22;3504;52.616;13.238;2023-02-04T03:40:57;1.88;83.05
6930;DHT22;3504;52.616;13.238;2023-02-04T03:45:58;1.79;83.22
6930;DHT22;3504;52.616;13.238;2023-02-04T03:50:58;1.77;83.67
6930;DHT22;3504;52.616;13.238;2023-02-04T03:55:59;1.77;83.56
6930;DHT22;3504;52.616;13.238;2023-02-04T04:00:59;1.81;83.38
6930;DHT22;3504;52.616;13.238;2023-02-04T04:06:00;1.84;83.31
6930;DHT22;3504;52.616;13.238;2023-02-04T04:11:00;1.77;83.36
6930;DHT22;3504;52.616;13.238;2023-02-04T04:16:01;1.68;84.23
6930;DHT22;3504;52.616;13.238;2023-02-04T04:21:03;1.70;84.64
6930;DHT22;3504;52.616;13.238;2023-02-04T04:26:03;1.72;84.74
6930;DHT22;3504;52.616;13.238;2023-02-04T04:31:04;1.68;84.64
6930;DHT22;3504;52.616;13.238;2023-02-04T04:36:06;1.67;84.14
6930;DHT22;3504;52.616;13.238;2023-02-04T04:41:06;1.62;84.45
6930;DHT22;3504;52.616;13.238;2023-02-04T04:46:07;1.62;84.06
6930;DHT22;3504;52.616;13.238;2023-02-04T04:51:07;1.64;83.91
6930;DHT22;3504;52.616;13.238;2023-02-04T04:56:08;1.57;83.82
6930;DHT22;3504;52.616;13.238;2023-02-04T05:01:08;1.50;84.39
6930;DHT22;3504;52.616;13.238;2023-02-04T05:06:09;1.44;84.53
6930;DHT22;3504;52.616;13.238;2023-02-04T05:11:10;1.44;84.70
6930;DHT22;3504;52.616;13.238;2023-02-04T05:16:10;1.43;84.83
6930;DHT22;3504;52.616;13.238;2023-02-04T05:21:11;1.41;84.64
6930;DHT22;3504;52.616;13.238;2023-02-04T05:26:12;1.39;85.01
6930;DHT22;3504;52.616;13.238;2023-02-04T05:31:12;1.33;85.07
6930;DHT22;3504;52.616;13.238;2023-02-04T05:36:12;1.30;85.43
6930;DHT22;3504;52.616;13.238;2023-02-04T05:41:13;1.26;85.49
6930;DHT22;3504;52.616;13.238;2023-02-04T05:46:14;1.20;85.80
6930;DHT22;3504;52.616;13.238;2023-02-04T05:51:14;1.19;86.04
6930;DHT22;3504;52.616;13.238;2023-02-04T05:56:15;1.22;85.78
6930;DHT22;3504;52.616;13.238;2023-02-04T06:01:15;1.23;85.44
6930;DHT22;3504;52.616;13.238;2023-02-04T06:06:16;1.23;85.49
6930;DHT22;3504;52.616;13.238;2023-02-04T06:11:16;1.17;85.65
6930;DHT22;3504;52.616;13.238;2023-02-04T06:16:17;1.17;85.87
6930;DHT22;3504;52.616;13.238;2023-02-04T06:21:17;1.19;85.82
6930;DHT22;3504;52.616;13.238;2023-02-04T06:26:18;1.19;85.66
6930;DHT22;3504;52.616;13.238;2023-02-04T06:31:19;1.16;85.24
6930;DHT22;3504;52.616;13.238;2023-02-04T06:36:19;1.16;85.06
6930;DHT22;3504;52.616;13.238;2023-02-04T06:41:20;1.17;84.93
6930;DHT22;3504;52.616;13.238;2023-02-04T06:46:20;1.16;84.86
6930;DHT22;3504;52.616;13.238;2023-02-04T06:51:21;1.13;84.45
6930;DHT22;3504;52.616;13.238;2023-02-04T06:56:21;1.07;84.23
6930;DHT22;3504;52.616;13.238;2023-02-04T07:01:22;1.03;84.42
6930;DHT22;3504;52.616;13.238;2023-02-04T07:06:22;1.04;84.44
6930;DHT22;3504;52.616;13.238;2023-02-04T07:11:23;1.02;84.36
6930;DHT22;3504;52.616;13.238;2023-02-04T07:16:23;1.03;84.20
6930;DHT22;3504;52.616;13.238;2023-02-04T07:21:23;0.96;83.82
6930;DHT22;3504;52.616;13.238;2023-02-04T07:26:24;0.97;84.38
6930;DHT22;3504;52.616;13.238;2023-02-04T07:31:25;0.99;84.48
6930;DHT22;3504;52.616;13.238;2023-02-04T07:36:25;1.03;84.84
6930;DHT22;3504;52.616;13.238;2023-02-04T07:41:26;1.02;85.00
6930;DHT22;3504;52.616;13.238;2023-02-04T07:46:26;1.02;85.69
6930;DHT22;3504;52.616;13.238;2023-02-04T07:51:27;1.04;86.12
6930;DHT22;3504;52.616;13.238;2023-02-04T07:56:27;1.10;86.38
6930;DHT22;3504;52.616;13.238;2023-02-04T08:01:28;1.19;86.44
6930;DHT22;3504;52.616;13.238;2023-02-04T08:06:28;1.27;86.43
6930;DHT22;3504;52.616;13.238;2023-02-04T08:11:29;1.41;86.41
6930;DHT22;3504;52.616;13.238;2023-02-04T08:16:29;1.51;86.30
6930;DHT22;3504;52.616;13.238;2023-02-04T08:21:30;1.62;86.39
6930;DHT22;3504;52.616;13.238;2023-02-04T08:26:31;1.74;85.93
6930;DHT22;3504;52.616;13.238;2023-02-04T08:31:31;1.74;85.58
6930;DHT22;3504;52.616;13.238;2023-02-04T08:36:32;1.78;85.39
6930;DHT22;3504;52.616;13.238;2023-02-04T08:41:32;1.82;85.44
6930;DHT22;3504;52.616;13.238;2023-02-04T08:46:33;1.91;84.90
6930;DHT22;3504;52.616;13.238;2023-02-04T08:51:33;2.06;84.54
6930;DHT22;3504;52.616;13.238;2023-02-04T08:56:34;2.29;84.40
6930;DHT22;3504;52.616;13.238;2023-02-04T09:01:34;2.46;83.21
6930;DHT22;3504;52.616;13.238;2023-02-04T09:06:35;2.57;83.01
6930;DHT22;3504;52.616;13.238;2023-02-04T09:11:35;2.73;82.12
6930;DHT22;3504;52.616;13.238;2023-02-04T09:16:36;2.76;81.78
6930;DHT22;3504;52.616;13.238;2023-02-04T09:21:36;2.85;81.82
6930;DHT22;3504;52.616;13.238;2023-02-04T09:26:37;3.01;80.07
6930;DHT22;3504;52.616;13.238;2023-02-04T09:31:37;3.29;80.08
6930;DHT22;3504;52.616;13.238;2023-02-04T09:36:38;3.43;79.49
6930;DHT22;3504;52.616;13.238;2023-02-04T09:41:39;3.67;78.34
6930;DHT22;3504;52.616;13.238;2023-02-04T09:46:50;3.63;78.60
6930;DHT22;3504;52.616;13.238;2023-02-04T09:51:51;3.87;76.95
6930;DHT22;3504;52.616;13.238;2023-02-04T09:56:52;4.04;77.07
6930;DHT22;3504;52.616;13.238;2023-02-04T10:02:01;4.18;75.06
6930;DHT22;3504;52.616;13.238;2023-02-04T10:07:01;4.21;74.49
6930;DHT22;3504;52.616;13.238;2023-02-04T10:12:03;4.34;75.25
6930;DHT22;3504;52.616;13.238;2023-02-04T10:17:03;4.45;73.15
6930;DHT22;3504;52.616;13.238;2023-02-04T10:22:18;4.52;73.76
6930;DHT22;3504;52.616;13.238;2023-02-04T10:27:20;4.62;71.77
6930;DHT22;3504;52.616;13.238;2023-02-04T10:32:30;4.56;71.35
6930;DHT22;3504;52.616;13.238;2023-02-04T10:37:31;4.76;72.32
6930;DHT22;3504;52.616;13.238;2023-02-04T10:42:31;5.10;70.95
6930;DHT22;3504;52.616;13.238;2023-02-04T10:47:32;5.18;69.37
6930;DHT22;3504;52.616;13.238;2023-02-04T10:52:43;5.06;69.56
6930;DHT22;3504;52.616;13.238;2023-02-04T10:57:47;4.80;69.02
6930;DHT22;3504;52.616;13.238;2023-02-04T11:07:59;5.03;68.24
6930;DHT22;3504;52.616;13.238;2023-02-04T11:13:05;4.90;69.37
6930;DHT22;3504;52.616;13.238;2023-02-04T11:18:12;4.58;68.84
6930;DHT22;3504;52.616;13.238;2023-02-04T11:28:25;4.72;68.75
6930;DHT22;3504;52.616;13.238;2023-02-04T11:33:38;4.75;68.09
6930;DHT22;3504;52.616;13.238;2023-02-04T11:38:44;4.51;67.26
6930;DHT22;3504;52.616;13.238;2023-02-04T11:43:45;4.35;66.73
6930;DHT22;3504;52.616;13.238;2023-02-04T11:48:45;4.53;66.69
6930;DHT22;3504;52.616;13.238;2023-02-04T11:53:50;4.58;67.76
6930;DHT22;3504;52.616;13.238;2023-02-04T11:58:56;4.58;67.84
6930;DHT22;3504;52.616;13.238;2023-02-04T12:04:04;4.31;66.58
6930;DHT22;3504;52.616;13.238;2023-02-04T12:14:17;4.55;65.94
6930;DHT22;3504;52.616;13.238;2023-02-04T12:19:17;4.63;65.63
6930;DHT22;3504;52.616;13.238;2023-02-04T12:24:18;4.45;65.87
6930;DHT22;3504;52.616;13.238;2023-02-04T12:29:18;4.20;66.22
6930;DHT22;3504;52.616;13.238;2023-02-04T12:34:19;4.08;67.37
6930;DHT22;3504;52.616;13.238;2023-02-04T12:39:20;4.26;67.90
6930;DHT22;3504;52.616;13.238;2023-02-04T12:44:21;4.41;65.88
6930;DHT22;3504;52.616;13.238;2023-02-04T12:49:21;4.29;64.33
6930;DHT22;3504;52.616;13.238;2023-02-04T12:54:24;4.34;65.04
6930;DHT22;3504;52.616;13.238;2023-02-04T12:59:24;4.59;66.14
6930;DHT22;3504;52.616;13.238;2023-02-04T13:04:25;4.68;64.59
6930;DHT22;3504;52.616;13.238;2023-02-04T13:09:25;4.59;65.37
6930;DHT22;3504;52.616;13.238;2023-02-04T13:14:26;4.58;64.89
6930;DHT22;3504;52.616;13.238;2023-02-04T13:19:26;4.80;63.97
6930;DHT22;3504;52.616;13.238;2023-02-04T13:24:28;4.77;62.93
6930;DHT22;3504;52.616;13.238;2023-02-04T13:29:28;4.49;62.48
6930;DHT22;3504;52.616;13.238;2023-02-04T13:34:29;4.38;63.09
6930;DHT22;3504;52.616;13.238;2023-02-04T13:39:29;4.29;63.76
6930;DHT22;3504;52.616;13.238;2023-02-04T13:44:30;4.10;63.93
6930;DHT22;3504;52.616;13.238;2023-02-04T13:49:30;4.00;63.02
6930;DHT22;3504;52.616;13.238;2023-02-04T13:54:31;4.08;64.23
6930;DHT22;3504;52.616;13.238;2023-02-04T13:59:31;4.31;63.87
6930;DHT22;3504;52.616;13.238;2023-02-04T14:04:32;4.44;60.61
6930;DHT22;3504;52.616;13.238;2023-02-04T14:09:32;4.42;60.12
6930;DHT22;3504;52.616;13.238;2023-02-04T14:14:33;4.22;59.80
6930;DHT22;3504;52.616;13.238;2023-02-04T14:19:33;4.25;60.78
6930;DHT22;3504;52.616;13.238;2023-02-04T14:24:34;4.36;61.58
6930;DHT22;3504;52.616;13.238;2023-02-04T14:29:34;4.35;61.15
6930;DHT22;3504;52.616;13.238;2023-02-04T14:34:35;4.26;61.52
6930;DHT22;3504;52.616;13.238;2023-02-04T14:39:35;4.05;59.76
6930;DHT22;3504;52.616;13.238;2023-02-04T14:44:36;3.94;60.60
6930;DHT22;3504;52.616;13.238;2023-02-04T14:49:36;3.87;60.58
6930;DHT22;3504;52.616;13.238;2023-02-04T14:54:37;3.89;62.24
6930;DHT22;3504;52.616;13.238;2023-02-04T14:59:38;3.90;62.17
6930;DHT22;3504;52.616;13.238;2023-02-04T15:04:38;3.71;60.77
6930;DHT22;3504;52.616;13.238;2023-02-04T15:09:39;3.67;62.24
6930;DHT22;3504;52.616;13.238;2023-02-04T15:14:39;3.63;61.47
6930;DHT22;3504;52.616;13.238;2023-02-04T15:19:40;3.50;61.70
6930;DHT22;3504;52.616;13.238;2023-02-04T15:24:40;3.46;61.43
6930;DHT22;3504;52.616;13.238;2023-02-04T15:29:41;3.39;61.47
6930;DHT22;3504;52.616;13.238;2023-02-04T15:34:41;3.36;61.17
6930;DHT22;3504;52.616;13.238;2023-02-04T15:39:42;3.28;62.39
6930;DHT22;3504;52.616;13.238;2023-02-04T15:44:43;3.13;61.09
6930;DHT22;3504;52.616;13.238;2023-02-04T15:49:43;3.04;61.79
6930;DHT22;3504;52.616;13.238;2023-02-04T15:54:44;2.91;62.31
6930;DHT22;3504;52.616;13.238;2023-02-04T15:59:44;2.78;62.91
6930;DHT22;3504;52.616;13.238;2023-02-04T16:04:45;2.71;62.81
6930;DHT22;3504;52.616;13.238;2023-02-04T16:09:47;2.58;63.04
6930;DHT22;3504;52.616;13.238;2023-02-04T16:14:47;2.47;63.60
6930;DHT22;3504;52.616;13.238;2023-02-04T16:19:48;2.40;63.44
6930;DHT22;3504;52.616;13.238;2023-02-04T16:24:48;2.29;64.41
6930;DHT22;3504;52.616;13.238;2023-02-04T16:29:49;2.22;64.78
6930;DHT22;3504;52.616;13.238;2023-02-04T16:34:49;2.10;65.46
6930;DHT22;3504;52.616;13.238;2023-02-04T16:39:50;2.12;66.60
6930;DHT22;3504;52.616;13.238;2023-02-04T16:44:51;2.12;67.28
6930;DHT22;3504;52.616;13.238;2023-02-04T16:49:51;2.07;67.59
6930;DHT22;3504;52.616;13.238;2023-02-04T16:54:52;1.99;68.17
6930;DHT22;3504;52.616;13.238;2023-02-04T16:59:53;1.89;68.54
6930;DHT22;3504;52.616;13.238;2023-02-04T17:04:53;1.82;69.10
6930;DHT22;3504;52.616;13.238;2023-02-04T17:09:54;1.70;68.78
6930;DHT22;3504;52.616;13.238;2023-02-04T17:14:54;1.61;69.38
6930;DHT22;3504;52.616;13.238;2023-02-04T17:19:55;1.46;69.32
6930;DHT22;3504;52.616;13.238;2023-02-04T17:24:56;1.41;70.26
6930;DHT22;3504;52.616;13.238;2023-02-04T17:29:56;1.40;70.38
6930;DHT22;3504;52.616;13.238;2023-02-04T17:34:57;1.34;70.51
6930;DHT22;3504;52.616;13.238;2023-02-04T17:39:58;1.29;70.84
6930;DHT22;3504;52.616;13.238;2023-02-04T17:44:58;1.16;71.10
6930;DHT22;3504;52.616;13.238;2023-02-04T17:49:59;1.10;71.27
6930;DHT22;3504;52.616;13.238;2023-02-04T17:55:01;1.02;71.67
6930;DHT22;3504;52.616;13.238;2023-02-04T18:00:10;0.90;71.80
6930;DHT22;3504;52.616;13.238;2023-02-04T18:05:16;0.83;72.18
6930;DHT22;3504;52.616;13.238;2023-02-04T18:10:28;0.75;72.32
6930;DHT22;3504;52.616;13.238;2023-02-04T18:15:31;0.66;72.68
6930;DHT22;3504;52.616;13.238;2023-02-04T18:20:31;0.65;72.74
6930;DHT22;3504;52.616;13.238;2023-02-04T18:25:32;0.57;72.85
6930;DHT22;3504;52.616;13.238;2023-02-04T18:30:32;0.52;72.76
6930;DHT22;3504;52.616;13.238;2023-02-04T18:35:40;0.47;72.98
6930;DHT22;3504;52.616;13.238;2023-02-04T18:40:41;0.40;72.92
6930;DHT22;3504;52.616;13.238;2023-02-04T18:45:41;0.28;73.07
6930;DHT22;3504;52.616;13.238;2023-02-04T18:50:43;0.27;73.31
6930;DHT22;3504;52.616;13.238;2023-02-04T18:55:48;0.26;73.13
6930;DHT22;3504;52.616;13.238;2023-02-04T19:01:00;0.17;73.07
6930;DHT22;3504;52.616;13.238;2023-02-04T19:06:02;0.06;72.64
6930;DHT22;3504;52.616;13.238;2023-02-04T19:11:17;0.00;73.17
6930;DHT22;3504;52.616;13.238;2023-02-04T19:21:28;-0.18;72.85
6930;DHT22;3504;52.616;13.238;2023-02-04T19:26:37;-0.25;72.68
6930;DHT22;3504;52.616;13.238;2023-02-04T19:31:40;-0.24;73.16
6930;DHT22;3504;52.616;13.238;2023-02-04T19:36:41;-0.33;72.41
6930;DHT22;3504;52.616;13.238;2023-02-04T19:41:49;-0.44;72.71
6930;DHT22;3504;52.616;13.238;2023-02-04T19:46:51;-0.58;72.56
6930;DHT22;3504;52.616;13.238;2023-02-04T19:51:57;-0.61;72.97
6930;DHT22;3504;52.616;13.238;2023-02-04T19:56:57;-0.68;72.61
6930;DHT22;3504;52.616;13.238;2023-02-04T20:02:34;-0.72;73.00
6930;DHT22;3504;52.616;13.238;2023-02-04T20:07:36;-0.70;72.52
6930;DHT22;3504;52.616;13.238;2023-02-04T20:12:37;-0.76;73.04
6930;DHT22;3504;52.616;13.238;2023-02-04T20:17:44;-0.73;73.13
6930;DHT22;3504;52.616;13.238;2023-02-04T20:22:52;-0.73;72.97
6930;DHT22;3504;52.616;13.238;2023-02-04T20:27:54;-0.72;73.50
6930;DHT22;3504;52.616;13.238;2023-02-04T20:33:12;-0.73;73.25
6930;DHT22;3504;52.616;13.238;2023-02-04T20:38:17;-0.70;73.42
6930;DHT22;3504;52.616;13.238;2023-02-04T20:43:20;-0.73;73.50
6930;DHT22;3504;52.616;13.238;2023-02-04T20:48:38;-0.79;73.63
6930;DHT22;3504;52.616;13.238;2023-02-04T20:53:53;-0.86;73.74
6930;DHT22;3504;52.616;13.238;2023-02-04T21:04:29;-0.87;73.72
6930;DHT22;3504;52.616;13.238;2023-02-04T21:09:33;-0.90;73.83
6930;DHT22;3504;52.616;13.238;2023-02-04T21:14:33;-0.97;74.23
6930;DHT22;3504;52.616;13.238;2023-02-04T21:19:34;-1.00;74.33
6930;DHT22;3504;52.616;13.238;2023-02-04T21:24:35;-1.09;74.35
6930;DHT22;3504;52.616;13.238;2023-02-04T21:29:35;-1.09;74.54
6930;DHT22;3504;52.616;13.238;2023-02-04T21:34:35;-1.04;74.55
6930;DHT22;3504;52.616;13.238;2023-02-04T21:39:36;-1.06;74.42
6930;DHT22;3504;52.616;13.238;2023-02-04T21:44:36;-1.09;74.60
6930;DHT22;3504;52.616;13.238;2023-02-04T21:49:37;-1.13;74.79
6930;DHT22;3504;52.616;13.238;2023-02-04T21:54:37;-1.15;74.74
6930;DHT22;3504;52.616;13.238;2023-02-04T21:59:38;-1.10;74.76
6930;DHT22;3504;52.616;13.238;2023-02-04T22:04:39;-1.13;74.82
6930;DHT22;3504;52.616;13.238;2023-02-04T22:09:39;-1.13;75.05
6930;DHT22;3504;52.616;13.238;2023-02-04T22:14:40;-1.10;75.22
6930;DHT22;3504;52.616;13.238;2023-02-04T22:19:40;-1.12;75.45
6930;DHT22;3504;52.616;13.238;2023-02-04T22:24:41;-1.15;75.47
6930;DHT22;3504;52.616;13.238;2023-02-04T22:29:41;-1.15;75.80
6930;DHT22;3504;52.616;13.238;2023-02-04T22:34:42;-1.16;75.80
6930;DHT22;3504;52.616;13.238;2023-02-04T22:39:42;-1.16;75.93
6930;DHT22;3504;52.616;13.238;2023-02-04T22:44:43;-1.17;75.96
6930;DHT22;3504;52.616;13.238;2023-02-04T22:49:43;-1.19;76.01
6930;DHT22;3504;52.616;13.238;2023-02-04T22:54:44;-1.21;76.26
6930;DHT22;3504;52.616;13.238;2023-02-04T22:59:44;-1.19;76.33
6930;DHT22;3504;52.616;13.238;2023-02-04T23:04:45;-1.17;76.40
6930;DHT22;3504;52.616;13.238;2023-02-04T23:09:45;-1.13;76.41
6930;DHT22;3504;52.616;13.238;2023-02-04T23:14:47;-1.10;76.32
6930;DHT22;3504;52.616;13.238;2023-02-04T23:19:48;-1.07;76.34
6930;DHT22;3504;52.616;13.238;2023-02-04T23:24:48;-1.09;76.39
6930;DHT22;3504;52.616;13.238;2023-02-04T23:29:49;-1.12;76.37
6930;DHT22;3504;52.616;13.238;2023-02-04T23:34:49;-1.10;76.45
6930;DHT22;3504;52.616;13.238;2023-02-04T23:39:50;-1.17;76.74
6930;DHT22;3504;52.616;13.238;2023-02-04T23:44:50;-1.19;76.98
6930;DHT22;3504;52.616;13.238;2023-02-04T23:49:51;-1.19;77.00
6930;DHT22;3504;52.616;13.238;2023-02-04T23:54:51;-1.20;77.06
6930;DHT22;3504;52.616;13.238;2023-02-04T23:59:52;-1.24;77.12
